sensor_id;sensor_type;location;lat;lon;timestamp;P1;durP1;ratioP1;P2;durP2;ratioP2
26062;SDS011;13837;48.562;12.108;2023-08-21T00:00:24;10.65;;;9.35;;
26062;SDS011;13837;48.562;12.108;2023-08-21T00:02:50;13.38;;;9.15;;
26062;SDS011;13837;48.562;12.108;2023-08-21T00:05:16;9.68;;;8.70;;
26062;SDS011;13837;48.562;12.108;2023-08-21T00:07:42;11.93;;;9.18;;
26062;SDS011;13837;48.562;12.108;2023-08-21T00:10:08;11.55;;;9.38;;
26062;SDS011;13837;48.562;12.108;2023-08-21T00:12:35;12.35;;;9.25;;
26062;SDS011;13837;48.562;12.108;2023-08-21T00:15:01;12.95;;;9.30;;
26062;SDS011;13837;48.562;12.108;2023-08-21T00:17:28;13.82;;;10.07;;
26062;SDS011;13837;48.562;12.108;2023-08-21T00:19:54;12.25;;;10.20;;
26062;SDS011;13837;48.562;12.108;2023-08-21T00:22:20;12.20;;;10.90;;
26062;SDS011;13837;48.562;12.108;2023-08-21T00:24:46;13.48;;;11.27;;
26062;SDS011;13837;48.562;12.108;2023-08-21T00:27:12;14.20;;;10.13;;
26062;SDS011;13837;48.562;12.108;2023-08-21T00:29:38;14.23;;;11.02;;
26062;SDS011;13837;48.562;12.108;2023-08-21T00:32:04;16.20;;;11.45;;
26062;SDS011;13837;48.562;12.108;2023-08-21T00:34:32;13.82;;;11.48;;
26062;SDS011;13837;48.562;12.108;2023-08-21T00:36:58;14.23;;;11.10;;
26062;SDS011;13837;48.562;12.108;2023-08-21T00:39:24;13.27;;;10.55;;
26062;SDS011;13837;48.562;12.108;2023-08-21T00:41:50;13.45;;;10.32;;
26062;SDS011;13837;48.562;12.108;2023-08-21T00:44:16;18.17;;;11.63;;
26062;SDS011;13837;48.562;12.108;2023-08-21T00:46:42;12.93;;;11.52;;
26062;SDS011;13837;48.562;12.108;2023-08-21T00:49:08;15.43;;;13.80;;
26062;SDS011;13837;48.562;12.108;2023-08-21T00:51:34;13.63;;;11.95;;
26062;SDS011;13837;48.562;12.108;2023-08-21T00:54:00;15.70;;;14.10;;
26062;SDS011;13837;48.562;12.108;2023-08-21T00:56:26;16.00;;;12.32;;
26062;SDS011;13837;48.562;12.108;2023-08-21T00:58:53;15.55;;;13.88;;
26062;SDS011;13837;48.562;12.108;2023-08-21T01:01:19;17.58;;;11.73;;
26062;SDS011;13837;48.562;12.108;2023-08-21T01:03:47;14.37;;;11.33;;
26062;SDS011;13837;48.562;12.108;2023-08-21T01:06:13;16.13;;;14.38;;
26062;SDS011;13837;48.562;12.108;2023-08-21T01:08:46;16.42;;;13.90;;
26062;SDS011;13837;48.562;12.108;2023-08-21T01:16:27;15.50;;;13.48;;
26062;SDS011;13837;48.562;12.108;2023-08-21T01:18:53;13.98;;;12.02;;
26062;SDS011;13837;48.562;12.108;2023-08-21T01:21:22;15.52;;;13.20;;
26062;SDS011;13837;48.562;12.108;2023-08-21T01:23:48;17.13;;;12.65;;
26062;SDS011;13837;48.562;12.108;2023-08-21T01:26:14;13.32;;;12.02;;
26062;SDS011;13837;48.562;12.108;2023-08-21T01:28:40;11.13;;;8.85;;
26062;SDS011;13837;48.562;12.108;2023-08-21T01:33:48;11.80;;;10.70;;
26062;SDS011;13837;48.562;12.108;2023-08-21T01:36:16;13.15;;;11.85;;
26062;SDS011;13837;48.562;12.108;2023-08-21T01:38:43;11.18;;;9.98;;
26062;SDS011;13837;48.562;12.108;2023-08-21T01:41:10;13.30;;;11.20;;
26062;SDS011;13837;48.562;12.108;2023-08-21T01:43:37;11.98;;;10.77;;
26062;SDS011;13837;48.562;12.108;2023-08-21T01:46:03;12.57;;;11.07;;
26062;SDS011;13837;48.562;12.108;2023-08-21T01:48:30;12.15;;;10.90;;
26062;SDS011;13837;48.562;12.108;2023-08-21T01:50:57;12.98;;;11.65;;
26062;SDS011;13837;48.562;12.108;2023-08-21T01:53:23;11.43;;;10.35;;
26062;SDS011;13837;48.562;12.108;2023-08-21T01:55:49;12.70;;;10.63;;
26062;SDS011;13837;48.562;12.108;2023-08-21T01:58:15;13.45;;;11.60;;
26062;SDS011;13837;48.562;12.108;2023-08-21T02:00:41;15.82;;;13.32;;
26062;SDS011;13837;48.562;12.108;2023-08-21T02:03:07;14.35;;;12.88;;
26062;SDS011;13837;48.562;12.108;2023-08-21T02:05:37;14.65;;;13.18;;
26062;SDS011;13837;48.562;12.108;2023-08-21T02:08:04;15.00;;;12.63;;
26062;SDS011;13837;48.562;12.108;2023-08-21T02:10:30;16.27;;;13.90;;
26062;SDS011;13837;48.562;12.108;2023-08-21T02:12:56;17.92;;;14.25;;
26062;SDS011;13837;48.562;12.108;2023-08-21T02:15:23;15.60;;;13.82;;
26062;SDS011;13837;48.562;12.108;2023-08-21T02:17:49;15.93;;;14.30;;
26062;SDS011;13837;48.562;12.108;2023-08-21T02:20:15;18.95;;;14.85;;
26062;SDS011;13837;48.562;12.108;2023-08-21T02:22:41;17.02;;;15.43;;
26062;SDS011;13837;48.562;12.108;2023-08-21T02:25:07;15.35;;;13.80;;
26062;SDS011;13837;48.562;12.108;2023-08-21T02:27:34;15.13;;;13.75;;
26062;SDS011;13837;48.562;12.108;2023-08-21T02:30:00;16.85;;;14.50;;
26062;SDS011;13837;48.562;12.108;2023-08-21T02:32:28;15.95;;;14.40;;
26062;SDS011;13837;48.562;12.108;2023-08-21T02:34:55;16.25;;;14.65;;
26062;SDS011;13837;48.562;12.108;2023-08-21T02:37:21;18.10;;;16.25;;
26062;SDS011;13837;48.562;12.108;2023-08-21T02:39:47;16.52;;;14.82;;
26062;SDS011;13837;48.562;12.108;2023-08-21T02:42:13;17.88;;;15.90;;
26062;SDS011;13837;48.562;12.108;2023-08-21T02:44:39;19.55;;;17.33;;
26062;SDS011;13837;48.562;12.108;2023-08-21T02:47:05;17.35;;;15.68;;
26062;SDS011;13837;48.562;12.108;2023-08-21T02:49:31;18.08;;;16.27;;
26062;SDS011;13837;48.562;12.108;2023-08-21T02:51:57;18.70;;;16.60;;
26062;SDS011;13837;48.562;12.108;2023-08-21T02:54:24;16.88;;;15.18;;
26062;SDS011;13837;48.562;12.108;2023-08-21T02:56:51;17.52;;;15.85;;
26062;SDS011;13837;48.562;12.108;2023-08-21T02:59:17;19.38;;;17.27;;
26062;SDS011;13837;48.562;12.108;2023-08-21T03:01:43;18.48;;;16.58;;
26062;SDS011;13837;48.562;12.108;2023-08-21T03:04:09;19.08;;;17.23;;
26062;SDS011;13837;48.562;12.108;2023-08-21T03:06:36;18.80;;;16.83;;
26062;SDS011;13837;48.562;12.108;2023-08-21T03:09:02;18.30;;;16.35;;
26062;SDS011;13837;48.562;12.108;2023-08-21T03:11:28;20.20;;;18.20;;
26062;SDS011;13837;48.562;12.108;2023-08-21T03:13:54;18.75;;;16.95;;
26062;SDS011;13837;48.562;12.108;2023-08-21T03:16:20;20.35;;;18.23;;
26062;SDS011;13837;48.562;12.108;2023-08-21T03:18:53;21.88;;;17.42;;
26062;SDS011;13837;48.562;12.108;2023-08-21T03:21:20;21.63;;;17.92;;
26062;SDS011;13837;48.562;12.108;2023-08-21T03:23:50;26.45;;;19.98;;
26062;SDS011;13837;48.562;12.108;2023-08-21T03:26:16;37.40;;;26.38;;
26062;SDS011;13837;48.562;12.108;2023-08-21T03:28:42;44.70;;;29.27;;
26062;SDS011;13837;48.562;12.108;2023-08-21T03:31:08;54.42;;;34.55;;
26062;SDS011;13837;48.562;12.108;2023-08-21T03:33:34;46.70;;;30.30;;
26062;SDS011;13837;48.562;12.108;2023-08-21T03:36:01;43.13;;;29.77;;
26062;SDS011;13837;48.562;12.108;2023-08-21T03:38:27;37.67;;;25.83;;
26062;SDS011;13837;48.562;12.108;2023-08-21T03:40:53;29.05;;;22.95;;
26062;SDS011;13837;48.562;12.108;2023-08-21T03:43:19;29.88;;;22.50;;
26062;SDS011;13837;48.562;12.108;2023-08-21T03:45:45;21.05;;;18.80;;
26062;SDS011;13837;48.562;12.108;2023-08-21T03:48:11;20.00;;;17.90;;
26062;SDS011;13837;48.562;12.108;2023-08-21T03:50:38;29.23;;;22.52;;
26062;SDS011;13837;48.562;12.108;2023-08-21T03:53:04;31.33;;;22.40;;
26062;SDS011;13837;48.562;12.108;2023-08-21T03:55:30;26.95;;;22.05;;
26062;SDS011;13837;48.562;12.108;2023-08-21T03:57:56;25.30;;;18.15;;
26062;SDS011;13837;48.562;12.108;2023-08-21T04:00:22;20.13;;;16.80;;
26062;SDS011;13837;48.562;12.108;2023-08-21T04:02:49;17.45;;;15.80;;
26062;SDS011;13837;48.562;12.108;2023-08-21T04:05:15;17.35;;;15.50;;
26062;SDS011;13837;48.562;12.108;2023-08-21T04:07:41;20.30;;;17.35;;
26062;SDS011;13837;48.562;12.108;2023-08-21T04:10:07;21.08;;;18.45;;
26062;SDS011;13837;48.562;12.108;2023-08-21T04:12:34;19.60;;;17.67;;
26062;SDS011;13837;48.562;12.108;2023-08-21T04:15:00;19.80;;;17.80;;
26062;SDS011;13837;48.562;12.108;2023-08-21T04:17:26;18.60;;;16.80;;
26062;SDS011;13837;48.562;12.108;2023-08-21T04:19:52;18.10;;;16.48;;
26062;SDS011;13837;48.562;12.108;2023-08-21T04:22:18;24.15;;;17.38;;
26062;SDS011;13837;48.562;12.108;2023-08-21T04:24:44;18.75;;;16.85;;
26062;SDS011;13837;48.562;12.108;2023-08-21T04:27:10;19.35;;;17.45;;
26062;SDS011;13837;48.562;12.108;2023-08-21T04:29:36;20.63;;;16.48;;
26062;SDS011;13837;48.562;12.108;2023-08-21T04:32:02;20.38;;;16.75;;
26062;SDS011;13837;48.562;12.108;2023-08-21T04:34:28;19.92;;;15.65;;
26062;SDS011;13837;48.562;12.108;2023-08-21T04:36:54;19.77;;;16.13;;
26062;SDS011;13837;48.562;12.108;2023-08-21T04:39:22;17.20;;;15.50;;
26062;SDS011;13837;48.562;12.108;2023-08-21T04:41:48;18.52;;;16.55;;
26062;SDS011;13837;48.562;12.108;2023-08-21T04:44:17;17.83;;;16.07;;
26062;SDS011;13837;48.562;12.108;2023-08-21T04:46:47;17.25;;;15.68;;
26062;SDS011;13837;48.562;12.108;2023-08-21T04:49:13;17.48;;;15.65;;
26062;SDS011;13837;48.562;12.108;2023-08-21T04:51:39;21.75;;;16.27;;
26062;SDS011;13837;48.562;12.108;2023-08-21T04:54:05;18.40;;;16.50;;
26062;SDS011;13837;48.562;12.108;2023-08-21T04:56:32;17.73;;;15.85;;
26062;SDS011;13837;48.562;12.108;2023-08-21T04:58:58;18.67;;;16.52;;
26062;SDS011;13837;48.562;12.108;2023-08-21T05:01:26;17.83;;;15.93;;
26062;SDS011;13837;48.562;12.108;2023-08-21T05:03:52;18.85;;;16.98;;
26062;SDS011;13837;48.562;12.108;2023-08-21T05:06:19;17.13;;;15.52;;
26062;SDS011;13837;48.562;12.108;2023-08-21T05:08:45;18.92;;;16.55;;
26062;SDS011;13837;48.562;12.108;2023-08-21T05:11:11;19.05;;;17.10;;
26062;SDS011;13837;48.562;12.108;2023-08-21T05:13:40;21.55;;;16.27;;
26062;SDS011;13837;48.562;12.108;2023-08-21T05:16:09;19.25;;;17.25;;
26062;SDS011;13837;48.562;12.108;2023-08-21T05:18:37;18.02;;;16.20;;
26062;SDS011;13837;48.562;12.108;2023-08-21T05:21:03;18.50;;;16.55;;
26062;SDS011;13837;48.562;12.108;2023-08-21T05:23:30;17.60;;;15.77;;
26062;SDS011;13837;48.562;12.108;2023-08-21T05:26:01;20.00;;;15.68;;
26062;SDS011;13837;48.562;12.108;2023-08-21T05:28:28;20.45;;;13.75;;
26062;SDS011;13837;48.562;12.108;2023-08-21T05:30:54;18.50;;;16.17;;
26062;SDS011;13837;48.562;12.108;2023-08-21T05:33:20;17.05;;;15.35;;
26062;SDS011;13837;48.562;12.108;2023-08-21T05:35:49;18.17;;;15.65;;
26062;SDS011;13837;48.562;12.108;2023-08-21T05:38:15;18.73;;;16.90;;
26062;SDS011;13837;48.562;12.108;2023-08-21T05:40:41;19.65;;;17.55;;
26062;SDS011;13837;48.562;12.108;2023-08-21T05:43:08;17.20;;;14.70;;
26062;SDS011;13837;48.562;12.108;2023-08-21T05:45:35;18.48;;;16.40;;
26062;SDS011;13837;48.562;12.108;2023-08-21T05:48:01;18.25;;;16.38;;
26062;SDS011;13837;48.562;12.108;2023-08-21T05:50:27;23.30;;;17.35;;
26062;SDS011;13837;48.562;12.108;2023-08-21T05:52:54;24.67;;;16.65;;
26062;SDS011;13837;48.562;12.108;2023-08-21T05:55:22;19.35;;;16.88;;
26062;SDS011;13837;48.562;12.108;2023-08-21T05:57:49;18.83;;;15.52;;
26062;SDS011;13837;48.562;12.108;2023-08-21T06:00:17;23.88;;;17.50;;
26062;SDS011;13837;48.562;12.108;2023-08-21T06:02:43;18.73;;;16.33;;
26062;SDS011;13837;48.562;12.108;2023-08-21T06:05:15;21.60;;;17.33;;
26062;SDS011;13837;48.562;12.108;2023-08-21T06:07:43;19.67;;;16.40;;
26062;SDS011;13837;48.562;12.108;2023-08-21T06:10:09;21.05;;;15.50;;
26062;SDS011;13837;48.562;12.108;2023-08-21T06:12:40;16.77;;;14.35;;
26062;SDS011;13837;48.562;12.108;2023-08-21T06:15:07;20.88;;;14.20;;
26062;SDS011;13837;48.562;12.108;2023-08-21T06:17:34;18.45;;;15.32;;
26062;SDS011;13837;48.562;12.108;2023-08-21T06:20:00;16.73;;;13.80;;
26062;SDS011;13837;48.562;12.108;2023-08-21T06:22:26;19.80;;;14.20;;
26062;SDS011;13837;48.562;12.108;2023-08-21T06:24:52;14.25;;;12.85;;
26062;SDS011;13837;48.562;12.108;2023-08-21T06:27:19;15.60;;;13.35;;
26062;SDS011;13837;48.562;12.108;2023-08-21T06:29:45;15.13;;;12.45;;
26062;SDS011;13837;48.562;12.108;2023-08-21T06:32:11;15.63;;;12.55;;
26062;SDS011;13837;48.562;12.108;2023-08-21T06:34:38;15.30;;;12.05;;
26062;SDS011;13837;48.562;12.108;2023-08-21T06:37:04;14.70;;;11.85;;
26062;SDS011;13837;48.562;12.108;2023-08-21T06:39:30;17.00;;;12.65;;
26062;SDS011;13837;48.562;12.108;2023-08-21T06:41:56;15.68;;;12.48;;
26062;SDS011;13837;48.562;12.108;2023-08-21T06:44:30;16.70;;;12.30;;
26062;SDS011;13837;48.562;12.108;2023-08-21T06:46:56;15.88;;;13.30;;
26062;SDS011;13837;48.562;12.108;2023-08-21T06:49:22;18.80;;;13.05;;
26062;SDS011;13837;48.562;12.108;2023-08-21T06:51:48;15.52;;;12.07;;
26062;SDS011;13837;48.562;12.108;2023-08-21T06:54:15;15.00;;;12.68;;
26062;SDS011;13837;48.562;12.108;2023-08-21T06:56:41;13.50;;;12.15;;
26062;SDS011;13837;48.562;12.108;2023-08-21T06:59:07;16.95;;;12.43;;
26062;SDS011;13837;48.562;12.108;2023-08-21T07:01:33;17.45;;;11.68;;
26062;SDS011;13837;48.562;12.108;2023-08-21T07:03:59;14.27;;;11.13;;
26062;SDS011;13837;48.562;12.108;2023-08-21T07:06:27;13.80;;;11.18;;
26062;SDS011;13837;48.562;12.108;2023-08-21T07:08:54;14.73;;;11.68;;
26062;SDS011;13837;48.562;12.108;2023-08-21T07:11:20;13.63;;;11.70;;
26062;SDS011;13837;48.562;12.108;2023-08-21T07:13:46;12.55;;;11.25;;
26062;SDS011;13837;48.562;12.108;2023-08-21T07:16:12;13.35;;;11.30;;
26062;SDS011;13837;48.562;12.108;2023-08-21T07:18:38;12.55;;;11.18;;
26062;SDS011;13837;48.562;12.108;2023-08-21T07:21:04;15.60;;;11.35;;
26062;SDS011;13837;48.562;12.108;2023-08-21T07:23:31;15.40;;;11.88;;
26062;SDS011;13837;48.562;12.108;2023-08-21T07:25:58;16.07;;;11.57;;
26062;SDS011;13837;48.562;12.108;2023-08-21T07:28:25;14.43;;;11.73;;
26062;SDS011;13837;48.562;12.108;2023-08-21T07:30:57;15.48;;;11.80;;
26062;SDS011;13837;48.562;12.108;2023-08-21T07:33:24;14.43;;;11.40;;
26062;SDS011;13837;48.562;12.108;2023-08-21T07:36:00;13.27;;;11.43;;
26062;SDS011;13837;48.562;12.108;2023-08-21T07:38:26;15.75;;;11.15;;
26062;SDS011;13837;48.562;12.108;2023-08-21T07:41:05;14.45;;;11.02;;
26062;SDS011;13837;48.562;12.108;2023-08-21T07:43:33;11.20;;;9.65;;
26062;SDS011;13837;48.562;12.108;2023-08-21T07:46:05;12.23;;;10.90;;
26062;SDS011;13837;48.562;12.108;2023-08-21T07:48:32;12.95;;;10.73;;
26062;SDS011;13837;48.562;12.108;2023-08-21T07:50:58;13.00;;;10.43;;
26062;SDS011;13837;48.562;12.108;2023-08-21T07:53:25;13.95;;;11.15;;
26062;SDS011;13837;48.562;12.108;2023-08-21T07:55:51;12.82;;;10.68;;
26062;SDS011;13837;48.562;12.108;2023-08-21T07:58:17;11.38;;;10.27;;
26062;SDS011;13837;48.562;12.108;2023-08-21T08:00:43;12.02;;;10.80;;
26062;SDS011;13837;48.562;12.108;2023-08-21T08:03:09;13.35;;;9.95;;
26062;SDS011;13837;48.562;12.108;2023-08-21T08:05:36;12.15;;;10.25;;
26062;SDS011;13837;48.562;12.108;2023-08-21T08:08:02;11.27;;;9.55;;
26062;SDS011;13837;48.562;12.108;2023-08-21T08:10:28;14.32;;;10.70;;
26062;SDS011;13837;48.562;12.108;2023-08-21T08:12:54;11.25;;;9.18;;
26062;SDS011;13837;48.562;12.108;2023-08-21T08:15:21;10.93;;;9.80;;
26062;SDS011;13837;48.562;12.108;2023-08-21T08:17:47;13.63;;;10.20;;
26062;SDS011;13837;48.562;12.108;2023-08-21T08:20:17;12.85;;;10.40;;
26062;SDS011;13837;48.562;12.108;2023-08-21T08:22:43;10.05;;;9.02;;
26062;SDS011;13837;48.562;12.108;2023-08-21T08:25:09;9.93;;;9.00;;
26062;SDS011;13837;48.562;12.108;2023-08-21T08:27:35;11.63;;;9.55;;
26062;SDS011;13837;48.562;12.108;2023-08-21T08:30:02;10.73;;;9.50;;
26062;SDS011;13837;48.562;12.108;2023-08-21T08:32:28;11.13;;;10.02;;
26062;SDS011;13837;48.562;12.108;2023-08-21T08:34:54;11.38;;;9.77;;
26062;SDS011;13837;48.562;12.108;2023-08-21T08:37:20;11.23;;;9.50;;
26062;SDS011;13837;48.562;12.108;2023-08-21T08:39:47;11.55;;;9.50;;
26062;SDS011;13837;48.562;12.108;2023-08-21T08:42:16;15.30;;;10.30;;
26062;SDS011;13837;48.562;12.108;2023-08-21T08:44:42;11.13;;;9.25;;
26062;SDS011;13837;48.562;12.108;2023-08-21T08:47:09;13.20;;;8.95;;
26062;SDS011;13837;48.562;12.108;2023-08-21T08:49:36;10.98;;;9.82;;
26062;SDS011;13837;48.562;12.108;2023-08-21T08:52:03;11.93;;;9.52;;
26062;SDS011;13837;48.562;12.108;2023-08-21T08:54:29;11.25;;;9.90;;
26062;SDS011;13837;48.562;12.108;2023-08-21T08:56:55;9.70;;;8.68;;
26062;SDS011;13837;48.562;12.108;2023-08-21T08:59:22;10.65;;;9.38;;
26062;SDS011;13837;48.562;12.108;2023-08-21T09:01:48;10.45;;;9.20;;
26062;SDS011;13837;48.562;12.108;2023-08-21T09:04:14;14.90;;;9.93;;
26062;SDS011;13837;48.562;12.108;2023-08-21T09:06:40;10.77;;;9.32;;
26062;SDS011;13837;48.562;12.108;2023-08-21T09:09:07;11.70;;;8.65;;
26062;SDS011;13837;48.562;12.108;2023-08-21T09:11:33;13.27;;;8.80;;
26062;SDS011;13837;48.562;12.108;2023-08-21T09:13:59;10.02;;;9.02;;
26062;SDS011;13837;48.562;12.108;2023-08-21T09:16:25;10.68;;;8.90;;
26062;SDS011;13837;48.562;12.108;2023-08-21T09:18:52;10.85;;;9.00;;
26062;SDS011;13837;48.562;12.108;2023-08-21T09:21:19;11.05;;;9.18;;
26062;SDS011;13837;48.562;12.108;2023-08-21T09:23:45;9.88;;;8.85;;
26062;SDS011;13837;48.562;12.108;2023-08-21T09:26:18;10.65;;;9.05;;
26062;SDS011;13837;48.562;12.108;2023-08-21T09:28:45;9.80;;;8.80;;
26062;SDS011;13837;48.562;12.108;2023-08-21T09:31:12;9.40;;;8.45;;
26062;SDS011;13837;48.562;12.108;2023-08-21T09:33:38;10.50;;;8.80;;
26062;SDS011;13837;48.562;12.108;2023-08-21T09:36:04;12.57;;;8.48;;
26062;SDS011;13837;48.562;12.108;2023-08-21T09:38:30;9.10;;;8.20;;
26062;SDS011;13837;48.562;12.108;2023-08-21T09:40:56;8.57;;;7.68;;
26062;SDS011;13837;48.562;12.108;2023-08-21T09:43:23;10.05;;;7.97;;
26062;SDS011;13837;48.562;12.108;2023-08-21T09:45:50;8.80;;;7.93;;
26062;SDS011;13837;48.562;12.108;2023-08-21T09:48:19;9.13;;;8.15;;
26062;SDS011;13837;48.562;12.108;2023-08-21T09:50:46;8.93;;;8.13;;
26062;SDS011;13837;48.562;12.108;2023-08-21T09:53:12;9.02;;;8.13;;
26062;SDS011;13837;48.562;12.108;2023-08-21T09:55:38;8.93;;;7.97;;
26062;SDS011;13837;48.562;12.108;2023-08-21T09:58:05;9.38;;;8.48;;
26062;SDS011;13837;48.562;12.108;2023-08-21T10:00:33;8.88;;;7.97;;
26062;SDS011;13837;48.562;12.108;2023-08-21T10:03:08;9.88;;;8.23;;
26062;SDS011;13837;48.562;12.108;2023-08-21T10:05:36;9.63;;;8.13;;
26062;SDS011;13837;48.562;12.108;2023-08-21T10:08:03;13.45;;;8.73;;
26062;SDS011;13837;48.562;12.108;2023-08-21T10:10:33;9.80;;;8.13;;
26062;SDS011;13837;48.562;12.108;2023-08-21T10:13:00;8.95;;;8.10;;
26062;SDS011;13837;48.562;12.108;2023-08-21T10:15:27;10.20;;;8.45;;
26062;SDS011;13837;48.562;12.108;2023-08-21T10:20:21;10.23;;;7.90;;
26062;SDS011;13837;48.562;12.108;2023-08-21T10:25:21;8.75;;;8.05;;
26062;SDS011;13837;48.562;12.108;2023-08-21T10:27:57;9.20;;;8.30;;
26062;SDS011;13837;48.562;12.108;2023-08-21T10:30:25;8.60;;;7.75;;
26062;SDS011;13837;48.562;12.108;2023-08-21T10:32:52;10.32;;;8.70;;
26062;SDS011;13837;48.562;12.108;2023-08-21T10:35:19;8.90;;;8.00;;
26062;SDS011;13837;48.562;12.108;2023-08-21T10:38:19;9.52;;;8.23;;
26062;SDS011;13837;48.562;12.108;2023-08-21T10:40:40;10.02;;;8.10;;
26062;SDS011;13837;48.562;12.108;2023-08-21T10:43:36;9.45;;;8.45;;
26062;SDS011;13837;48.562;12.108;2023-08-21T10:45:55;8.93;;;8.07;;
26062;SDS011;13837;48.562;12.108;2023-08-21T10:48:21;9.77;;;8.55;;
26062;SDS011;13837;48.562;12.108;2023-08-21T10:50:47;10.63;;;7.82;;
26062;SDS011;13837;48.562;12.108;2023-08-21T10:53:13;11.50;;;8.70;;
26062;SDS011;13837;48.562;12.108;2023-08-21T10:55:39;10.75;;;8.05;;
26062;SDS011;13837;48.562;12.108;2023-08-21T10:58:08;9.35;;;8.18;;
26062;SDS011;13837;48.562;12.108;2023-08-21T11:00:36;9.15;;;8.25;;
26062;SDS011;13837;48.562;12.108;2023-08-21T11:03:02;10.02;;;8.73;;
26062;SDS011;13837;48.562;12.108;2023-08-21T11:05:28;9.27;;;8.35;;
26062;SDS011;13837;48.562;12.108;2023-08-21T11:07:54;8.48;;;7.78;;
26062;SDS011;13837;48.562;12.108;2023-08-21T11:10:24;9.35;;;8.50;;
26062;SDS011;13837;48.562;12.108;2023-08-21T11:15:16;9.52;;;8.18;;
26062;SDS011;13837;48.562;12.108;2023-08-21T11:17:50;9.75;;;7.97;;
26062;SDS011;13837;48.562;12.108;2023-08-21T11:20:16;8.73;;;8.02;;
26062;SDS011;13837;48.562;12.108;2023-08-21T11:22:42;9.68;;;7.75;;
26062;SDS011;13837;48.562;12.108;2023-08-21T11:25:08;8.63;;;7.72;;
26062;SDS011;13837;48.562;12.108;2023-08-21T11:27:34;9.20;;;7.93;;
26062;SDS011;13837;48.562;12.108;2023-08-21T11:30:00;9.45;;;8.13;;
26062;SDS011;13837;48.562;12.108;2023-08-21T11:32:27;8.40;;;7.70;;
26062;SDS011;13837;48.562;12.108;2023-08-21T11:34:53;9.00;;;8.13;;
26062;SDS011;13837;48.562;12.108;2023-08-21T11:37:21;8.30;;;7.40;;
26062;SDS011;13837;48.562;12.108;2023-08-21T11:39:48;8.18;;;7.35;;
26062;SDS011;13837;48.562;12.108;2023-08-21T11:42:15;7.07;;;6.47;;
26062;SDS011;13837;48.562;12.108;2023-08-21T11:44:45;9.02;;;6.85;;
26062;SDS011;13837;48.562;12.108;2023-08-21T11:47:12;7.57;;;6.88;;
26062;SDS011;13837;48.562;12.108;2023-08-21T11:49:42;11.37;;;7.37;;
26062;SDS011;13837;48.562;12.108;2023-08-21T11:52:09;12.10;;;6.97;;
26062;SDS011;13837;48.562;12.108;2023-08-21T11:54:36;8.45;;;7.25;;
26062;SDS011;13837;48.562;12.108;2023-08-21T11:57:08;8.88;;;7.32;;
26062;SDS011;13837;48.562;12.108;2023-08-21T11:59:34;7.82;;;6.60;;
26062;SDS011;13837;48.562;12.108;2023-08-21T12:02:05;7.32;;;6.65;;
26062;SDS011;13837;48.562;12.108;2023-08-21T12:04:33;7.40;;;6.70;;
26062;SDS011;13837;48.562;12.108;2023-08-21T12:07:00;7.05;;;6.45;;
26062;SDS011;13837;48.562;12.108;2023-08-21T12:09:26;8.60;;;6.70;;
26062;SDS011;13837;48.562;12.108;2023-08-21T12:11:52;7.78;;;7.07;;
26062;SDS011;13837;48.562;12.108;2023-08-21T12:14:18;7.47;;;6.78;;
26062;SDS011;13837;48.562;12.108;2023-08-21T12:16:44;10.68;;;7.15;;
26062;SDS011;13837;48.562;12.108;2023-08-21T12:19:10;7.93;;;6.90;;
26062;SDS011;13837;48.562;12.108;2023-08-21T12:21:37;7.90;;;7.15;;
26062;SDS011;13837;48.562;12.108;2023-08-21T12:24:04;7.22;;;6.55;;
26062;SDS011;13837;48.562;12.108;2023-08-21T12:26:31;7.43;;;6.82;;
26062;SDS011;13837;48.562;12.108;2023-08-21T12:28:58;7.93;;;6.65;;
26062;SDS011;13837;48.562;12.108;2023-08-21T12:31:24;7.80;;;7.00;;
26062;SDS011;13837;48.562;12.108;2023-08-21T12:33:50;6.90;;;5.88;;
26062;SDS011;13837;48.562;12.108;2023-08-21T12:36:16;8.82;;;6.30;;
26062;SDS011;13837;48.562;12.108;2023-08-21T12:38:42;6.95;;;6.30;;
26062;SDS011;13837;48.562;12.108;2023-08-21T12:41:08;7.35;;;6.28;;
26062;SDS011;13837;48.562;12.108;2023-08-21T12:43:34;6.60;;;6.00;;
26062;SDS011;13837;48.562;12.108;2023-08-21T12:46:00;6.60;;;6.07;;
26062;SDS011;13837;48.562;12.108;2023-08-21T12:48:26;6.70;;;6.10;;
26062;SDS011;13837;48.562;12.108;2023-08-21T12:50:52;7.35;;;6.32;;
26062;SDS011;13837;48.562;12.108;2023-08-21T12:53:18;9.43;;;6.13;;
26062;SDS011;13837;48.562;12.108;2023-08-21T12:55:44;5.88;;;5.40;;
26062;SDS011;13837;48.562;12.108;2023-08-21T12:58:10;7.40;;;5.82;;
26062;SDS011;13837;48.562;12.108;2023-08-21T13:03:04;5.95;;;5.50;;
26062;SDS011;13837;48.562;12.108;2023-08-21T13:05:30;6.45;;;5.72;;
26062;SDS011;13837;48.562;12.108;2023-08-21T13:07:56;6.28;;;5.65;;
26062;SDS011;13837;48.562;12.108;2023-08-21T13:10:22;6.88;;;5.88;;
26062;SDS011;13837;48.562;12.108;2023-08-21T13:12:49;7.03;;;5.82;;
26062;SDS011;13837;48.562;12.108;2023-08-21T13:15:16;6.68;;;5.90;;
26062;SDS011;13837;48.562;12.108;2023-08-21T13:17:42;7.95;;;5.65;;
26062;SDS011;13837;48.562;12.108;2023-08-21T13:20:09;9.60;;;6.00;;
26062;SDS011;13837;48.562;12.108;2023-08-21T13:22:44;8.43;;;5.50;;
26062;SDS011;13837;48.562;12.108;2023-08-21T13:25:11;8.63;;;6.25;;
26062;SDS011;13837;48.562;12.108;2023-08-21T13:27:37;7.13;;;6.20;;
26062;SDS011;13837;48.562;12.108;2023-08-21T13:30:03;6.00;;;5.40;;
26062;SDS011;13837;48.562;12.108;2023-08-21T13:32:30;6.57;;;5.68;;
26062;SDS011;13837;48.562;12.108;2023-08-21T13:34:56;8.50;;;6.32;;
26062;SDS011;13837;48.562;12.108;2023-08-21T13:37:23;5.45;;;5.05;;
26062;SDS011;13837;48.562;12.108;2023-08-21T13:39:49;6.65;;;5.50;;
26062;SDS011;13837;48.562;12.108;2023-08-21T13:42:15;6.13;;;5.50;;
26062;SDS011;13837;48.562;12.108;2023-08-21T13:44:41;5.93;;;5.25;;
26062;SDS011;13837;48.562;12.108;2023-08-21T13:47:07;6.28;;;5.57;;
26062;SDS011;13837;48.562;12.108;2023-08-21T13:49:33;5.85;;;5.15;;
26062;SDS011;13837;48.562;12.108;2023-08-21T13:51:59;6.03;;;5.30;;
26062;SDS011;13837;48.562;12.108;2023-08-21T13:54:25;6.55;;;5.03;;
26062;SDS011;13837;48.562;12.108;2023-08-21T13:56:51;5.22;;;4.72;;
26062;SDS011;13837;48.562;12.108;2023-08-21T13:59:17;5.70;;;5.25;;
26062;SDS011;13837;48.562;12.108;2023-08-21T14:01:43;6.70;;;5.45;;
26062;SDS011;13837;48.562;12.108;2023-08-21T14:04:09;5.72;;;5.05;;
26062;SDS011;13837;48.562;12.108;2023-08-21T14:06:35;7.22;;;5.63;;
26062;SDS011;13837;48.562;12.108;2023-08-21T14:09:01;5.90;;;5.32;;
26062;SDS011;13837;48.562;12.108;2023-08-21T14:11:27;10.50;;;5.38;;
26062;SDS011;13837;48.562;12.108;2023-08-21T14:13:53;5.80;;;5.30;;
26062;SDS011;13837;48.562;12.108;2023-08-21T14:16:19;5.80;;;5.20;;
26062;SDS011;13837;48.562;12.108;2023-08-21T14:18:46;7.55;;;5.50;;
26062;SDS011;13837;48.562;12.108;2023-08-21T14:21:12;6.03;;;5.53;;
26062;SDS011;13837;48.562;12.108;2023-08-21T14:23:38;8.75;;;5.28;;
26062;SDS011;13837;48.562;12.108;2023-08-21T14:26:04;6.10;;;5.45;;
26062;SDS011;13837;48.562;12.108;2023-08-21T14:28:30;8.07;;;5.82;;
26062;SDS011;13837;48.562;12.108;2023-08-21T14:30:57;6.35;;;5.80;;
26062;SDS011;13837;48.562;12.108;2023-08-21T14:33:23;6.22;;;5.55;;